Time;durP1;ratioP1;P1;durP2;ratioP2;P2;SDS_P1;SDS_P2;PMS_P1;PMS_P2;Temp;Humidity;BMP_temperature;BMP_pressure;BME280_temperature;BME280_humidity;BME280_pressure;Samples;Min_cycle;Max_cycle;Signal;HPM_P1;HPM_P2
2023/11/16 00:00:29;;;;;;;7.05;1.20;;;9.60;99.90;;;;;;5091356;28;20044;-74
2023/11/16 00:02:55;;;;;;;4.47;0.88;;;9.60;99.90;;;;;;5091019;28;20040;-74
2023/11/16 00:05:21;;;;;;;7.38;1.02;;;9.60;99.90;;;;;;5090985;28;20157;-74
2023/11/16 00:07:47;;;;;;;12.77;2.13;;;9.50;99.90;;;;;;5091035;28;20040;-74
2023/11/16 00:10:14;;;;;;;10.93;0.90;;;9.60;99.90;;;;;;5090992;28;20047;-74
2023/11/16 00:12:40;;;;;;;8.30;1.10;;;9.60;99.90;;;;;;5090840;28;20032;-74
2023/11/16 00:15:07;;;;;;;7.03;1.10;;;9.60;99.90;;;;;;5090708;28;20040;-74
2023/11/16 00:17:33;;;;;;;10.98;1.52;;;9.70;99.90;;;;;;5092186;28;20047;-74
2023/11/16 00:20:00;;;;;;;6.68;1.17;;;9.60;99.90;;;;;;5092161;28;20048;-74
2023/11/16 00:22:28;;;;;;;4.10;1.65;;;9.70;99.90;;;;;;5090795;28;20028;-74
2023/11/16 00:24:54;;;;;;;8.15;1.33;;;9.60;99.90;;;;;;5091836;28;20062;-74
2023/11/16 00:27:20;;;;;;;6.53;1.58;;;9.70;99.90;;;;;;5090506;28;20612;-74
2023/11/16 00:29:45;;;;;;;8.63;1.42;;;9.60;99.90;;;;;;5091985;28;20039;-74
2023/11/16 00:32:11;;;;;;;7.35;1.23;;;9.60;99.90;;;;;;5090601;28;20086;-74
2023/11/16 00:34:37;;;;;;;8.68;1.45;;;9.70;99.90;;;;;;5090366;28;20076;-74
2023/11/16 00:37:05;;;;;;;3.90;1.00;;;9.70;99.90;;;;;;5090722;28;20055;-74
2023/11/16 00:39:32;;;;;;;6.25;1.42;;;9.70;99.90;;;;;;5073673;28;20036;-74
2023/11/16 00:42:00;;;;;;;5.35;1.33;;;9.60;99.90;;;;;;5091852;28;20044;-74
2023/11/16 00:44:26;;;;;;;10.80;1.30;;;9.70;99.90;;;;;;5090137;28;20039;-74
2023/11/16 00:46:52;;;;;;;6.95;1.83;;;9.70;99.90;;;;;;5090598;28;20115;-74
2023/11/16 00:49:18;;;;;;;11.02;2.03;;;9.70;99.90;;;;;;5090798;28;20040;-74
2023/11/16 00:51:44;;;;;;;5.45;1.13;;;9.80;99.90;;;;;;5090473;28;20036;-74
2023/11/16 00:54:12;;;;;;;5.47;1.00;;;9.80;99.90;;;;;;5090103;28;20078;-74
2023/11/16 00:56:39;;;;;;;6.75;1.67;;;9.80;99.90;;;;;;5091744;28;20170;-74
2023/11/16 00:59:05;;;;;;;6.10;1.10;;;9.80;99.90;;;;;;5090348;28;20051;-74
2023/11/16 01:01:34;;;;;;;6.65;1.35;;;9.80;99.90;;;;;;5090607;28;20043;-74
2023/11/16 01:04:01;;;;;;;13.13;1.55;;;9.90;99.90;;;;;;5090047;28;20032;-75
2023/11/16 01:06:27;;;;;;;8.38;1.58;;;9.80;99.90;;;;;;5090675;28;20391;-74
2023/11/16 01:08:53;;;;;;;13.63;1.52;;;9.90;99.90;;;;;;5090372;28;20039;-74
2023/11/16 01:11:27;;;;;;;9.85;2.47;;;9.90;99.90;;;;;;5090253;28;20047;-74
2023/11/16 01:13:56;;;;;;;8.77;1.52;;;9.80;99.90;;;;;;5089950;28;20040;-74
2023/11/16 01:16:25;;;;;;;11.48;1.80;;;9.80;99.90;;;;;;5090566;28;20087;-74
2023/11/16 01:18:52;;;;;;;7.38;2.05;;;9.90;99.90;;;;;;5090207;28;20044;-74
2023/11/16 01:21:18;;;;;;;5.50;1.77;;;9.90;99.90;;;;;;5091573;28;20040;-74
2023/11/16 01:23:46;;;;;;;12.43;1.55;;;9.90;99.90;;;;;;5090144;28;20363;-74
2023/11/16 01:26:17;;;;;;;6.68;1.88;;;9.80;99.90;;;;;;5090140;28;20521;-74
2023/11/16 01:28:50;;;;;;;5.30;1.02;;;9.90;99.90;;;;;;5091517;28;20094;-74
2023/11/16 01:31:19;;;;;;;8.52;1.23;;;9.80;99.90;;;;;;5090433;28;20036;-74
2023/11/16 01:33:46;;;;;;;4.55;0.88;;;9.80;99.90;;;;;;5091121;28;20047;-74
2023/11/16 01:36:13;;;;;;;16.50;2.85;;;9.70;99.90;;;;;;5090137;28;20469;-75
2023/11/16 01:38:39;;;;;;;5.68;0.73;;;9.70;99.90;;;;;;5092386;28;20426;-74
2023/11/16 01:41:06;;;;;;;5.20;1.88;;;9.70;99.90;;;;;;5093861;28;20092;-74
2023/11/16 01:43:33;;;;;;;4.95;0.85;;;9.70;99.90;;;;;;5093428;28;20445;-74
2023/11/16 01:46:05;;;;;;;3.25;0.80;;;9.70;99.90;;;;;;5093883;28;20128;-75
2023/11/16 01:48:33;;;;;;;4.85;1.02;;;9.70;99.90;;;;;;5093908;28;20450;-74
2023/11/16 01:51:04;;;;;;;5.07;0.90;;;9.60;99.90;;;;;;5094036;28;20455;-74
2023/11/16 01:53:34;;;;;;;7.80;1.08;;;9.70;99.90;;;;;;5093181;28;20036;-74
2023/11/16 01:56:01;;;;;;;8.25;1.27;;;9.60;99.90;;;;;;5093687;28;20074;-75
2023/11/16 01:58:27;;;;;;;5.75;0.90;;;9.60;99.90;;;;;;5093664;28;20040;-74
2023/11/16 02:00:56;;;;;;;7.68;1.33;;;9.50;99.90;;;;;;5093545;28;20127;-75
2023/11/16 02:03:22;;;;;;;3.88;0.73;;;9.50;99.90;;;;;;5093050;28;20040;-74
2023/11/16 02:05:48;;;;;;;7.05;0.85;;;9.40;99.90;;;;;;5093487;28;20414;-75
2023/11/16 02:08:13;;;;;;;9.88;2.70;;;9.30;99.90;;;;;;5093465;28;20067;-74
2023/11/16 02:10:41;;;;;;;4.03;0.70;;;9.30;99.90;;;;;;5094599;28;20044;-74
2023/11/16 02:13:26;;;;;;;10.63;1.50;;;9.30;99.90;;;;;;5092861;28;20076;-74
2023/11/16 02:15:57;;;;;;;4.50;0.60;;;9.10;99.90;;;;;;5093335;28;20044;-74
2023/11/16 02:18:25;;;;;;;7.32;1.20;;;9.10;99.90;;;;;;5093223;28;20075;-75
2023/11/16 02:20:53;;;;;;;3.67;0.60;;;9.00;99.90;;;;;;5093112;28;20036;-74
2023/11/16 02:23:18;;;;;;;4.63;0.88;;;9.00;99.90;;;;;;5092928;28;20647;-74
2023/11/16 02:25:51;;;;;;;5.63;1.05;;;9.00;99.90;;;;;;5093044;28;20043;-74
2023/11/16 02:28:22;;;;;;;8.38;1.55;;;8.90;99.90;;;;;;5093171;28;20040;-74
2023/11/16 02:30:49;;;;;;;9.90;1.13;;;8.90;99.90;;;;;;5092970;28;20040;-74
2023/11/16 02:33:15;;;;;;;4.18;1.02;;;8.80;99.90;;;;;;5092473;28;20040;-74
2023/11/16 02:35:41;;;;;;;6.78;0.70;;;8.80;99.90;;;;;;5092910;28;20039;-75
2023/11/16 02:38:08;;;;;;;4.38;1.90;;;8.80;99.90;;;;;;5075870;28;20043;-74
2023/11/16 02:40:34;;;;;;;5.80;0.57;;;8.70;99.90;;;;;;5092728;28;20036;-74
2023/11/16 02:43:03;;;;;;;6.53;0.63;;;8.70;99.90;;;;;;5075364;28;20380;-75
2023/11/16 02:45:28;;;;;;;5.38;1.10;;;8.70;99.90;;;;;;5092671;28;20123;-74
2023/11/16 02:47:54;;;;;;;8.25;1.70;;;8.70;99.90;;;;;;5092697;28;20557;-74
2023/11/16 02:50:22;;;;;;;3.42;1.55;;;8.60;99.90;;;;;;5092163;28;20131;-74
2023/11/16 02:52:48;;;;;;;3.30;0.60;;;8.60;99.90;;;;;;5092660;28;20048;-75
2023/11/16 02:55:14;;;;;;;4.05;0.70;;;8.60;99.90;;;;;;5093513;28;20563;-75
2023/11/16 02:57:40;;;;;;;5.05;0.70;;;8.60;99.90;;;;;;5092491;28;20075;-75
2023/11/16 03:00:12;;;;;;;5.75;1.05;;;8.60;99.90;;;;;;5093602;28;20042;-74
2023/11/16 03:02:42;;;;;;;4.30;0.65;;;8.50;99.90;;;;;;5092353;28;20032;-74
2023/11/16 03:05:10;;;;;;;7.47;1.10;;;8.60;99.90;;;;;;5093500;28;20028;-74
2023/11/16 03:07:37;;;;;;;6.18;0.90;;;8.40;99.90;;;;;;5093542;28;20047;-74
2023/11/16 03:10:04;;;;;;;4.30;0.77;;;8.50;99.90;;;;;;5092207;28;20047;-74
2023/11/16 03:12:29;;;;;;;4.13;0.80;;;8.40;99.90;;;;;;5091984;28;20129;-74
2023/11/16 03:14:55;;;;;;;5.53;0.60;;;8.40;99.90;;;;;;5092162;28;20126;-74
2023/11/16 03:17:22;;;;;;;5.93;0.82;;;8.40;99.90;;;;;;5092365;28;20040;-74
2023/11/16 03:19:48;;;;;;;4.93;0.80;;;8.40;99.90;;;;;;5091977;28;20055;-75
2023/11/16 03:22:13;;;;;;;6.10;0.85;;;8.40;99.90;;;;;;5092208;28;20391;-75
2023/11/16 03:24:39;;;;;;;5.03;0.98;;;8.40;99.90;;;;;;5074703;28;20035;-75
2023/11/16 03:27:05;;;;;;;3.65;1.15;;;8.40;99.90;;;;;;5092139;28;20036;-75
2023/11/16 03:29:34;;;;;;;2.17;0.95;;;8.40;99.90;;;;;;5091860;28;20046;-75
2023/11/16 03:31:59;;;;;;;2.80;0.40;;;8.30;99.90;;;;;;5074866;28;20044;-75
2023/11/16 03:34:25;;;;;;;4.85;0.60;;;8.30;99.90;;;;;;5091388;28;20055;-75
2023/11/16 03:36:51;;;;;;;5.10;2.05;;;8.20;99.90;;;;;;5091711;28;20510;-75
2023/11/16 03:39:17;;;;;;;4.88;0.82;;;8.20;99.90;;;;;;5091512;28;20402;-75
2023/11/16 03:41:43;;;;;;;3.03;0.93;;;8.10;99.90;;;;;;5091736;28;20372;-75
2023/11/16 03:44:09;;;;;;;2.78;0.65;;;8.10;99.90;;;;;;5091222;28;20036;-75
2023/11/16 03:46:34;;;;;;;2.17;0.65;;;8.10;99.90;;;;;;5091814;28;20115;-75
2023/11/16 03:49:00;;;;;;;6.60;1.33;;;8.10;99.90;;;;;;5091511;28;20565;-75
2023/11/16 03:51:29;;;;;;;1.95;0.70;;;8.10;99.90;;;;;;5091399;28;20080;-75
2023/11/16 03:53:57;;;;;;;4.43;2.15;;;8.00;99.90;;;;;;5073980;28;20078;-75
2023/11/16 03:56:23;;;;;;;2.15;0.40;;;8.00;99.90;;;;;;5091330;28;20507;-75
2023/11/16 03:58:48;;;;;;;5.72;0.68;;;8.00;99.90;;;;;;5091228;28;20546;-75
2023/11/16 04:01:14;;;;;;;6.35;1.00;;;8.00;99.90;;;;;;5090441;28;20161;-74
2023/11/16 04:03:39;;;;;;;5.22;0.55;;;8.00;99.90;;;;;;5090953;28;20082;-75
2023/11/16 04:06:06;;;;;;;2.95;0.80;;;8.00;99.90;;;;;;5091196;28;20043;-75
2023/11/16 04:08:32;;;;;;;5.97;0.77;;;8.00;99.90;;;;;;5091058;28;20055;-75
2023/11/16 04:10:58;;;;;;;2.22;0.55;;;8.00;99.90;;;;;;5074173;28;20043;-75
2023/11/16 04:13:24;;;;;;;1.35;0.40;;;8.00;99.90;;;;;;5090534;28;20423;-75
2023/11/16 04:15:52;;;;;;;4.05;0.60;;;8.00;99.90;;;;;;5091074;28;20040;-75
2023/11/16 04:18:19;;;;;;;5.05;0.70;;;8.00;99.90;;;;;;5091243;28;20044;-75
2023/11/16 04:20:44;;;;;;;2.35;0.50;;;7.90;99.90;;;;;;5090859;28;20093;-75
2023/11/16 04:23:10;;;;;;;2.78;0.90;;;7.90;99.90;;;;;;5090576;28;20044;-75
2023/11/16 04:25:36;;;;;;;1.30;0.45;;;7.90;99.90;;;;;;5090812;28;20123;-75
2023/11/16 04:28:04;;;;;;;2.40;0.57;;;7.80;99.90;;;;;;5091111;28;20083;-75
2023/11/16 04:30:30;;;;;;;1.83;0.73;;;7.60;99.90;;;;;;5090821;28;20050;-75
2023/11/16 04:33:00;;;;;;;3.05;0.57;;;7.70;99.90;;;;;;5090784;28;20377;-75
2023/11/16 04:35:26;;;;;;;6.00;0.75;;;7.70;99.90;;;;;;5090947;28;20036;-75
2023/11/16 04:37:54;;;;;;;3.28;0.50;;;7.70;99.90;;;;;;5090490;28;20040;-75
2023/11/16 04:40:22;;;;;;;1.77;0.52;;;7.70;99.90;;;;;;5090538;28;20470;-75
2023/11/16 04:42:48;;;;;;;2.67;0.40;;;7.60;99.90;;;;;;5094378;28;20043;-74
2023/11/16 04:45:14;;;;;;;4.40;0.43;;;7.60;99.90;;;;;;5077882;28;20514;-74
2023/11/16 04:47:45;;;;;;;7.70;0.60;;;7.60;99.90;;;;;;5094178;28;20500;-74
2023/11/16 04:50:13;;;;;;;6.28;0.57;;;7.60;99.90;;;;;;5095945;28;20054;-74
2023/11/16 04:52:40;;;;;;;2.72;0.40;;;7.50;99.90;;;;;;5096420;28;20124;-74
2023/11/16 04:55:07;;;;;;;3.30;0.77;;;7.60;99.90;;;;;;5098736;28;20040;-74
2023/11/16 04:57:33;;;;;;;4.28;0.82;;;7.50;99.90;;;;;;5098660;28;20040;-74
2023/11/16 04:59:58;;;;;;;2.58;0.40;;;7.40;99.90;;;;;;5098252;28;20089;-74
2023/11/16 05:02:24;;;;;;;2.58;0.57;;;7.40;99.90;;;;;;5097262;28;20067;-74
2023/11/16 05:04:51;;;;;;;5.03;0.65;;;7.40;99.90;;;;;;5097266;28;20032;-74
2023/11/16 05:07:16;;;;;;;2.85;0.50;;;7.40;99.90;;;;;;5099090;28;20036;-74
2023/11/16 05:09:42;;;;;;;0.85;0.63;;;7.40;99.90;;;;;;5099412;28;20165;-74
2023/11/16 05:12:08;;;;;;;7.07;1.35;;;7.40;99.90;;;;;;5100423;28;20167;-74
2023/11/16 05:14:37;;;;;;;4.57;0.55;;;7.40;99.90;;;;;;5101869;28;20451;-74
2023/11/16 05:17:05;;;;;;;2.97;0.73;;;7.40;99.90;;;;;;5103107;28;20140;-74
2023/11/16 05:19:31;;;;;;;3.25;0.40;;;7.40;99.90;;;;;;5101705;28;20093;-74
2023/11/16 05:21:56;;;;;;;1.95;0.60;;;7.40;99.90;;;;;;5102492;28;20032;-74
2023/11/16 05:24:24;;;;;;;1.98;0.45;;;7.30;99.90;;;;;;5100665;28;20059;-74
2023/11/16 05:26:51;;;;;;;3.78;0.75;;;7.30;99.90;;;;;;5084251;28;20070;-74
2023/11/16 05:29:16;;;;;;;2.38;0.88;;;7.20;99.90;;;;;;5102324;28;20043;-74
2023/11/16 05:31:42;;;;;;;1.13;0.60;;;7.20;99.90;;;;;;5085287;28;20048;-74
2023/11/16 05:34:08;;;;;;;3.17;1.25;;;7.20;99.90;;;;;;5101501;28;20043;-75
2023/11/16 05:36:36;;;;;;;2.88;0.90;;;7.30;99.90;;;;;;5101645;28;20089;-75
2023/11/16 05:39:03;;;;;;;3.42;0.35;;;7.20;99.90;;;;;;5099934;28;20506;-73
2023/11/16 05:41:29;;;;;;;4.05;0.70;;;7.20;99.90;;;;;;5098824;28;20071;-73
2023/11/16 05:43:54;;;;;;;1.10;0.40;;;7.20;99.90;;;;;;5099367;28;20499;-74
2023/11/16 05:46:20;;;;;;;2.15;0.60;;;7.00;99.90;;;;;;5099596;28;20043;-74
2023/11/16 05:48:45;;;;;;;2.78;0.57;;;7.00;99.90;;;;;;5101406;28;20040;-74
2023/11/16 05:51:11;;;;;;;2.00;0.80;;;7.00;99.90;;;;;;5083928;28;20071;-74
2023/11/16 05:53:38;;;;;;;6.10;0.63;;;7.00;99.90;;;;;;5102475;28;20096;-74
2023/11/16 05:56:04;;;;;;;2.33;0.60;;;7.00;99.90;;;;;;5103203;28;20497;-74
2023/11/16 05:58:29;;;;;;;3.40;0.60;;;7.10;99.90;;;;;;5101627;28;20096;-74
2023/11/16 06:00:55;;;;;;;5.20;0.73;;;7.20;99.90;;;;;;5084362;28;20070;-74
2023/11/16 06:03:26;;;;;;;7.72;1.10;;;7.20;99.90;;;;;;5100627;28;20086;-74
2023/11/16 06:05:53;;;;;;;2.35;0.73;;;7.20;99.90;;;;;;5083934;28;20418;-74
2023/11/16 06:08:19;;;;;;;2.63;0.50;;;7.10;99.90;;;;;;5100514;28;20036;-74
2023/11/16 06:10:44;;;;;;;4.80;0.88;;;7.10;99.90;;;;;;5100984;28;20046;-74
2023/11/16 06:13:10;;;;;;;3.22;0.80;;;7.20;99.90;;;;;;5101417;28;20040;-74
2023/11/16 06:15:36;;;;;;;2.92;0.63;;;7.10;99.90;;;;;;5097609;28;20048;-74
2023/11/16 06:18:02;;;;;;;3.65;0.80;;;7.10;99.90;;;;;;5101908;28;20067;-74
2023/11/16 06:20:28;;;;;;;1.60;0.47;;;7.10;99.90;;;;;;5102480;28;20051;-74
2023/11/16 06:22:54;;;;;;;2.08;0.68;;;7.10;99.90;;;;;;5099965;28;20089;-74
2023/11/16 06:25:20;;;;;;;2.85;0.60;;;7.10;99.90;;;;;;5099777;28;20032;-74
2023/11/16 06:27:46;;;;;;;2.63;0.80;;;7.20;99.90;;;;;;5100240;28;20063;-75
2023/11/16 06:30:15;;;;;;;4.70;0.85;;;7.10;99.90;;;;;;5100417;28;20048;-75
2023/11/16 06:32:42;;;;;;;7.95;1.60;;;7.20;99.90;;;;;;5083962;28;20044;-75
2023/11/16 06:35:08;;;;;;;2.67;0.60;;;7.10;99.90;;;;;;5101019;28;20032;-75
2023/11/16 06:37:34;;;;;;;1.30;0.50;;;7.10;99.90;;;;;;5098691;28;20037;-75
2023/11/16 06:40:00;;;;;;;1.52;1.10;;;7.00;99.90;;;;;;5098848;28;20040;-74
2023/11/16 06:42:26;;;;;;;6.40;0.70;;;7.00;99.90;;;;;;5097357;28;20032;-74
2023/11/16 06:44:52;;;;;;;2.53;0.90;;;7.00;99.90;;;;;;5082811;28;20126;-75
2023/11/16 06:47:18;;;;;;;3.03;0.80;;;7.10;99.90;;;;;;5100411;28;20055;-75
2023/11/16 06:49:48;;;;;;;3.45;0.50;;;6.90;99.90;;;;;;5100000;28;20119;-75
2023/11/16 06:52:17;;;;;;;4.90;0.73;;;6.90;99.90;;;;;;5100705;28;20036;-74
2023/11/16 06:54:42;;;;;;;3.00;1.13;;;7.00;99.90;;;;;;5099554;28;20076;-75
2023/11/16 06:57:13;;;;;;;2.38;0.52;;;7.00;99.90;;;;;;5099604;28;20040;-76
2023/11/16 06:59:42;;;;;;;2.28;0.68;;;6.90;99.90;;;;;;5082943;28;20558;-74
2023/11/16 07:02:08;;;;;;;4.38;0.80;;;6.80;99.90;;;;;;5099101;28;20061;-74
2023/11/16 07:04:36;;;;;;;2.95;0.68;;;6.90;99.90;;;;;;5098405;28;20071;-74
2023/11/16 07:07:02;;;;;;;1.20;0.50;;;6.70;99.90;;;;;;5098499;28;20039;-74
2023/11/16 07:09:27;;;;;;;2.72;0.68;;;6.90;99.90;;;;;;5097804;28;20044;-74
2023/11/16 07:11:53;;;;;;;1.15;0.40;;;6.90;99.90;;;;;;5098469;28;20043;-74
2023/11/16 07:14:19;;;;;;;3.22;0.90;;;6.80;99.90;;;;;;5099297;28;20036;-74
2023/11/16 07:16:48;;;;;;;5.13;1.02;;;6.90;99.90;;;;;;5099647;28;20040;-74
2023/11/16 07:19:13;;;;;;;1.83;0.68;;;6.80;99.90;;;;;;5098270;28;20047;-74
2023/11/16 07:21:39;;;;;;;2.95;0.80;;;6.90;99.90;;;;;;5098300;28;20032;-74
2023/11/16 07:24:05;;;;;;;5.60;0.88;;;7.00;99.90;;;;;;5098965;28;20036;-74
2023/11/16 07:26:31;;;;;;;2.50;1.08;;;7.10;99.90;;;;;;5097555;28;20063;-74
2023/11/16 07:28:57;;;;;;;6.47;1.67;;;7.10;99.90;;;;;;5098146;28;20081;-74
2023/11/16 07:31:24;;;;;;;3.38;1.20;;;7.10;99.90;;;;;;5099267;28;20044;-74
2023/11/16 07:33:54;;;;;;;6.05;1.60;;;7.10;99.90;;;;;;5099219;28;20088;-74
2023/11/16 07:36:27;;;;;;;2.58;1.60;;;7.10;99.90;;;;;;5100389;28;20048;-74
2023/11/16 07:38:57;;;;;;;3.33;0.73;;;7.20;99.90;;;;;;5100583;28;20043;-75
2023/11/16 07:41:23;;;;;;;3.30;1.08;;;7.10;99.90;;;;;;5099233;28;20061;-75
2023/11/16 07:43:49;;;;;;;4.20;1.52;;;7.20;99.90;;;;;;5096982;28;20032;-74
2023/11/16 07:46:15;;;;;;;5.43;0.90;;;7.20;99.90;;;;;;5098887;28;20066;-74
2023/11/16 07:48:43;;;;;;;2.15;0.60;;;7.40;99.90;;;;;;5097755;28;20092;-75
2023/11/16 07:51:12;;;;;;;1.60;0.93;;;7.40;99.90;;;;;;5096870;28;20048;-75
2023/11/16 07:53:40;;;;;;;4.22;0.93;;;7.30;99.90;;;;;;5097346;28;20036;-76
2023/11/16 07:56:06;;;;;;;2.38;0.95;;;7.50;99.90;;;;;;5097493;28;20099;-75
2023/11/16 07:58:34;;;;;;;4.28;1.05;;;7.50;99.90;;;;;;5097136;28;20458;-75
2023/11/16 08:01:11;;;;;;;5.55;1.48;;;7.70;99.90;;;;;;5097543;28;20085;-75
2023/11/16 08:03:45;;;;;;;5.25;1.10;;;7.80;99.90;;;;;;5094466;28;20084;-74
2023/11/16 08:06:12;;;;;;;2.45;0.80;;;7.80;99.90;;;;;;5094624;28;20438;-75
2023/11/16 08:08:46;;;;;;;3.13;0.95;;;7.90;99.90;;;;;;5094800;28;20043;-74
2023/11/16 08:11:13;;;;;;;2.40;1.05;;;7.90;99.90;;;;;;5094186;28;20079;-75
2023/11/16 08:13:41;;;;;;;2.50;1.20;;;8.00;99.90;;;;;;5094310;28;20054;-75
2023/11/16 08:16:09;;;;;;;1.42;0.90;;;8.00;99.90;;;;;;5094330;28;20043;-75
2023/11/16 08:18:35;;;;;;;2.45;0.90;;;8.00;99.90;;;;;;5095033;28;20099;-74
2023/11/16 08:21:01;;;;;;;4.80;1.05;;;8.00;99.90;;;;;;5094422;28;20036;-75
2023/11/16 08:23:29;;;;;;;6.50;1.55;;;8.00;99.90;;;;;;5093804;28;20043;-73
2023/11/16 08:25:57;;;;;;;6.25;1.15;;;8.00;99.90;;;;;;5094052;28;20414;-73
2023/11/16 08:28:25;;;;;;;5.82;1.67;;;8.10;99.90;;;;;;5096380;28;20040;-73
2023/11/16 08:30:53;;;;;;;4.70;1.05;;;7.90;99.90;;;;;;5095016;28;20044;-74
2023/11/16 08:33:20;;;;;;;3.15;1.00;;;8.00;99.90;;;;;;5095438;28;20036;-73
2023/11/16 08:35:46;;;;;;;4.80;0.98;;;8.00;99.90;;;;;;5094542;28;20067;-73
2023/11/16 08:38:14;;;;;;;2.20;1.30;;;8.00;99.90;;;;;;5082607;28;20055;-73
2023/11/16 08:40:44;;;;;;;5.47;1.80;;;8.00;99.90;;;;;;5075276;28;20055;-73
2023/11/16 08:43:12;;;;;;;5.10;1.48;;;8.00;99.90;;;;;;5082361;28;20618;-73
2023/11/16 08:45:39;;;;;;;2.83;1.00;;;8.00;99.90;;;;;;5082831;28;20040;-73
2023/11/16 08:48:07;;;;;;;2.35;0.73;;;8.00;99.90;;;;;;5086959;28;20047;-73
2023/11/16 08:50:37;;;;;;;3.88;0.90;;;8.00;99.90;;;;;;5095534;28;20395;-74
2023/11/16 08:53:07;;;;;;;4.93;1.45;;;8.00;99.90;;;;;;5093238;28;20048;-74
2023/11/16 08:55:33;;;;;;;3.00;1.10;;;8.00;99.90;;;;;;5092825;28;20086;-73
2023/11/16 08:58:00;;;;;;;6.18;1.20;;;8.10;99.90;;;;;;5093559;28;20542;-73
2023/11/16 09:00:36;;;;;;;5.15;1.20;;;8.00;99.90;;;;;;5093723;28;20040;-73
2023/11/16 09:03:04;;;;;;;5.57;1.10;;;8.10;99.90;;;;;;5092765;28;20036;-74
2023/11/16 09:05:35;;;;;;;3.60;2.00;;;8.20;99.90;;;;;;5093510;28;20040;-74
2023/11/16 09:08:01;;;;;;;2.88;1.05;;;8.30;99.90;;;;;;5076894;28;20437;-74
2023/11/16 09:10:34;;;;;;;2.83;1.50;;;8.40;99.90;;;;;;5093003;28;20032;-73
2023/11/16 09:13:01;;;;;;;4.53;2.03;;;8.40;99.90;;;;;;5093929;28;20392;-74
2023/11/16 09:15:27;;;;;;;3.05;1.50;;;8.50;99.90;;;;;;5092458;28;20039;-73
2023/11/16 09:17:54;;;;;;;3.78;1.35;;;8.50;99.90;;;;;;5081232;28;20105;-74
2023/11/16 09:20:24;;;;;;;3.83;1.52;;;8.60;99.90;;;;;;5082128;28;20048;-74
2023/11/16 09:22:50;;;;;;;8.23;1.75;;;8.60;99.90;;;;;;5079439;28;20040;-74
2023/11/16 09:25:20;;;;;;;3.92;1.77;;;8.50;99.90;;;;;;5090096;28;20040;-74
2023/11/16 09:27:56;;;;;;;3.75;1.40;;;8.50;99.90;;;;;;5093508;28;20032;-73
2023/11/16 09:30:24;;;;;;;5.95;1.60;;;8.40;99.90;;;;;;5093592;28;20464;-74
2023/11/16 09:32:54;;;;;;;3.45;1.40;;;8.50;99.90;;;;;;5092253;28;20193;-73
2023/11/16 09:35:21;;;;;;;2.33;1.17;;;8.40;99.90;;;;;;5093883;28;20048;-73
2023/11/16 09:37:55;;;;;;;3.67;1.40;;;8.40;99.90;;;;;;5074528;28;20040;-74
2023/11/16 09:40:30;;;;;;;2.47;1.00;;;8.50;99.90;;;;;;5084184;28;20040;-73
2023/11/16 09:42:57;;;;;;;3.13;1.13;;;8.40;99.90;;;;;;5067086;28;20415;-73
2023/11/16 09:45:27;;;;;;;6.40;1.25;;;8.40;99.90;;;;;;5081244;28;20398;-74
2023/11/16 09:48:01;;;;;;;7.13;1.90;;;8.40;99.90;;;;;;5067454;28;20041;-74
2023/11/16 09:50:28;;;;;;;7.65;1.30;;;8.40;99.90;;;;;;5084225;28;20040;-74
2023/11/16 09:52:58;;;;;;;4.97;1.13;;;8.50;99.90;;;;;;5091002;28;20089;-74
2023/11/16 09:55:30;;;;;;;5.88;1.33;;;8.50;99.90;;;;;;5092644;28;20081;-75
2023/11/16 09:58:04;;;;;;;6.40;1.48;;;8.50;99.90;;;;;;5093221;28;20040;-74
2023/11/16 10:00:32;;;;;;;2.92;0.95;;;8.50;99.90;;;;;;5096532;28;20047;-74
2023/11/16 10:02:58;;;;;;;5.78;1.42;;;8.50;99.90;;;;;;5097702;28;20085;-74
2023/11/16 10:05:27;;;;;;;3.42;1.00;;;8.50;99.90;;;;;;5096211;28;20436;-74
2023/11/16 10:07:53;;;;;;;5.72;1.40;;;8.50;99.90;;;;;;5096534;28;20121;-74
2023/11/16 10:10:33;;;;;;;4.07;1.08;;;8.50;99.90;;;;;;5097355;28;20043;-74
2023/11/16 10:13:03;;;;;;;3.80;1.20;;;8.50;99.90;;;;;;5095672;28;20040;-74
2023/11/16 10:15:29;;;;;;;7.03;1.58;;;8.50;99.90;;;;;;5095825;28;20464;-74
2023/11/16 10:17:55;;;;;;;8.23;1.00;;;8.50;99.90;;;;;;5080198;28;20036;-75
2023/11/16 10:20:23;;;;;;;4.32;1.20;;;8.50;99.90;;;;;;5096406;28;20032;-74
2023/11/16 10:22:50;;;;;;;5.00;0.90;;;8.60;99.90;;;;;;5098858;28;20036;-74
2023/11/16 10:25:17;;;;;;;3.58;1.08;;;8.60;99.90;;;;;;5079465;28;20509;-74
2023/11/16 10:27:44;;;;;;;6.05;1.05;;;8.60;99.90;;;;;;5096693;28;20079;-75
2023/11/16 10:30:15;;;;;;;2.13;1.20;;;8.60;99.90;;;;;;5089894;28;20601;-74
2023/11/16 10:32:47;;;;;;;2.67;0.63;;;8.60;99.90;;;;;;5088099;28;20104;-74
2023/11/16 10:35:13;;;;;;;3.15;0.90;;;8.70;99.90;;;;;;5068966;28;20066;-74
2023/11/16 10:37:44;;;;;;;3.50;0.82;;;8.70;99.90;;;;;;5096013;28;20068;-74
2023/11/16 10:40:11;;;;;;;1.83;0.80;;;8.70;99.90;;;;;;5096294;28;20499;-74
2023/11/16 10:42:41;;;;;;;4.97;0.70;;;8.80;99.90;;;;;;5096752;28;20032;-75
2023/11/16 10:45:12;;;;;;;6.85;0.73;;;8.80;99.90;;;;;;5099250;28;20445;-75
2023/11/16 10:47:40;;;;;;;0.95;0.55;;;8.90;99.90;;;;;;5097297;28;20119;-75
2023/11/16 10:50:06;;;;;;;4.53;0.80;;;8.80;99.90;;;;;;5098419;28;20121;-75
2023/11/16 10:52:35;;;;;;;5.45;1.67;;;8.90;99.90;;;;;;5096895;28;20056;-74
2023/11/16 10:55:07;;;;;;;3.38;0.80;;;8.90;99.90;;;;;;5097185;28;20426;-75
2023/11/16 10:57:35;;;;;;;4.75;0.80;;;8.90;99.90;;;;;;5098071;28;20048;-75
2023/11/16 11:00:03;;;;;;;4.78;1.60;;;8.90;99.90;;;;;;5096117;28;20402;-75
2023/11/16 11:02:29;;;;;;;2.45;0.60;;;9.00;99.90;;;;;;5085335;28;20024;-75
2023/11/16 11:04:54;;;;;;;2.10;0.68;;;9.00;99.90;;;;;;5084978;28;20034;-75
2023/11/16 11:07:20;;;;;;;2.42;0.40;;;9.00;99.90;;;;;;5094959;28;20040;-76
2023/11/16 11:09:48;;;;;;;1.48;0.50;;;9.00;99.90;;;;;;5099115;28;20044;-75
2023/11/16 11:12:15;;;;;;;2.08;0.75;;;9.00;99.90;;;;;;5080746;28;20040;-75
2023/11/16 11:14:51;;;;;;;4.85;1.10;;;9.00;99.90;;;;;;5097557;28;20051;-75
2023/11/16 11:17:20;;;;;;;3.75;0.65;;;9.10;99.90;;;;;;5098313;28;20042;-75
2023/11/16 11:20:09;;;;;;;5.78;1.13;;;9.10;99.90;;;;;;5098403;28;20121;-75
2023/11/16 11:22:36;;;;;;;1.95;0.50;;;9.10;99.90;;;;;;5099714;28;20040;-76
2023/11/16 11:25:12;;;;;;;2.15;0.73;;;9.20;99.90;;;;;;5097759;28;20111;-75
2023/11/16 11:27:39;;;;;;;2.17;0.43;;;9.20;99.90;;;;;;5098212;28;20040;-75
2023/11/16 11:30:13;;;;;;;3.45;1.00;;;9.10;99.90;;;;;;5098269;28;20044;-75
2023/11/16 11:32:43;;;;;;;1.13;0.30;;;9.20;99.90;;;;;;5097206;28;20040;-75
2023/11/16 11:35:10;;;;;;;1.20;0.50;;;9.20;99.90;;;;;;5095522;28;20093;-73
2023/11/16 11:37:37;;;;;;;1.38;0.40;;;9.30;99.90;;;;;;5097305;28;20040;-73
2023/11/16 11:40:14;;;;;;;4.30;0.50;;;9.30;99.90;;;;;;5096232;28;20044;-73
2023/11/16 11:42:44;;;;;;;1.15;0.43;;;9.30;99.90;;;;;;5095998;28;20040;-74
2023/11/16 11:45:12;;;;;;;1.48;0.40;;;9.30;99.90;;;;;;5093982;28;20048;-73
2023/11/16 11:47:39;;;;;;;1.95;0.63;;;9.30;99.90;;;;;;5095673;28;20028;-73
2023/11/16 11:50:06;;;;;;;2.15;0.30;;;9.30;99.90;;;;;;5095106;28;20057;-73
2023/11/16 11:52:34;;;;;;;2.30;0.38;;;9.30;99.90;;;;;;5095317;28;20449;-75
2023/11/16 11:55:00;;;;;;;1.40;0.45;;;9.30;99.90;;;;;;5095217;28;20036;-73
2023/11/16 11:57:27;;;;;;;2.72;0.63;;;9.30;99.90;;;;;;5092927;28;20414;-74
2023/11/16 11:59:52;;;;;;;2.13;0.50;;;9.40;99.90;;;;;;5077847;28;20040;-73
2023/11/16 12:02:19;;;;;;;1.40;0.52;;;9.40;99.90;;;;;;5094559;28;20038;-75
2023/11/16 12:04:45;;;;;;;2.88;0.80;;;9.50;99.90;;;;;;5091958;28;20047;-74
2023/11/16 12:07:12;;;;;;;3.75;1.38;;;9.50;99.90;;;;;;5095007;28;20040;-74
2023/11/16 12:09:42;;;;;;;5.20;0.80;;;9.50;99.90;;;;;;5095208;28;20499;-73
2023/11/16 12:12:09;;;;;;;1.52;0.55;;;9.50;99.90;;;;;;5093727;28;20441;-75
2023/11/16 12:14:47;;;;;;;4.95;1.38;;;9.40;99.90;;;;;;5094233;28;20093;-76
2023/11/16 12:17:16;;;;;;;1.08;0.40;;;9.30;99.90;;;;;;5094936;28;20044;-75
2023/11/16 12:19:43;;;;;;;3.60;0.60;;;9.30;99.90;;;;;;5092552;28;20043;-73
2023/11/16 12:22:12;;;;;;;1.67;0.50;;;9.30;99.90;;;;;;5090472;28;20118;-73
2023/11/16 12:24:38;;;;;;;2.40;0.40;;;9.20;99.90;;;;;;5093430;28;20428;-72
2023/11/16 12:27:05;;;;;;;0.82;0.40;;;9.20;99.90;;;;;;5093081;28;20079;-74
2023/11/16 12:29:31;;;;;;;5.00;0.50;;;9.20;99.90;;;;;;5091322;28;20157;-73
2023/11/16 12:31:57;;;;;;;1.98;0.40;;;9.10;99.90;;;;;;5092574;28;20043;-74
2023/11/16 12:34:27;;;;;;;1.05;0.35;;;9.10;99.90;;;;;;5090641;28;20044;-74
2023/11/16 12:36:58;;;;;;;1.52;0.40;;;9.10;99.90;;;;;;5091942;28;20476;-75
2023/11/16 12:39:25;;;;;;;3.10;0.70;;;9.10;99.90;;;;;;5092070;28;20797;-74
2023/11/16 12:41:58;;;;;;;4.00;0.50;;;9.10;99.90;;;;;;5074230;28;20044;-73
2023/11/16 12:44:24;;;;;;;2.17;0.35;;;9.10;99.90;;;;;;5092557;28;20391;-73
2023/11/16 12:46:50;;;;;;;3.78;0.60;;;9.10;99.90;;;;;;5092861;28;20047;-73
2023/11/16 12:49:16;;;;;;;2.78;0.40;;;9.10;99.90;;;;;;5094147;28;20661;-74
2023/11/16 12:51:41;;;;;;;3.00;0.63;;;9.10;99.90;;;;;;5091224;28;20040;-74
2023/11/16 12:54:08;;;;;;;2.03;0.40;;;9.10;99.90;;;;;;5089584;28;20032;-73
2023/11/16 12:56:34;;;;;;;3.58;0.70;;;9.20;99.90;;;;;;5081754;28;20064;-73
2023/11/16 12:59:02;;;;;;;3.10;1.17;;;9.30;99.90;;;;;;5082432;28;20093;-74